sensor_id;sensor_type;location;lat;lon;timestamp;temperature;humidity
61398;DHT22;47267;48.130;-2.040;2024-02-15T00:00:41;20.70;57.70
61398;DHT22;47267;48.130;-2.040;2024-02-15T00:03:10;20.80;57.70
61398;DHT22;47267;48.130;-2.040;2024-02-15T00:05:39;20.80;57.70
61398;DHT22;47267;48.130;-2.040;2024-02-15T00:08:05;20.80;57.70
61398;DHT22;47267;48.130;-2.040;2024-02-15T00:10:31;20.70;57.70
61398;DHT22;47267;48.130;-2.040;2024-02-15T00:12:58;20.70;57.70
61398;DHT22;47267;48.130;-2.040;2024-02-15T00:15:23;20.70;57.70
61398;DHT22;47267;48.130;-2.040;2024-02-15T00:17:50;20.70;57.70
61398;DHT22;47267;48.130;-2.040;2024-02-15T00:20:15;20.70;57.60
61398;DHT22;47267;48.130;-2.040;2024-02-15T00:22:43;20.70;57.70
61398;DHT22;47267;48.130;-2.040;2024-02-15T00:25:09;20.70;57.70
61398;DHT22;47267;48.130;-2.040;2024-02-15T00:27:36;20.70;57.70
61398;DHT22;47267;48.130;-2.040;2024-02-15T00:30:03;20.70;57.70
61398;DHT22;47267;48.130;-2.040;2024-02-15T00:32:30;20.70;57.70
61398;DHT22;47267;48.130;-2.040;2024-02-15T00:34:56;20.60;57.60
61398;DHT22;47267;48.130;-2.040;2024-02-15T00:37:22;20.60;57.60
61398;DHT22;47267;48.130;-2.040;2024-02-15T00:39:48;20.60;57.60
61398;DHT22;47267;48.130;-2.040;2024-02-15T00:42:13;20.60;57.60
61398;DHT22;47267;48.130;-2.040;2024-02-15T00:44:41;20.60;57.60
61398;DHT22;47267;48.130;-2.040;2024-02-15T00:47:07;20.60;57.60
61398;DHT22;47267;48.130;-2.040;2024-02-15T00:49:33;20.60;57.60
61398;DHT22;47267;48.130;-2.040;2024-02-15T00:51:59;20.60;57.60
61398;DHT22;47267;48.130;-2.040;2024-02-15T00:54:24;20.60;57.60
61398;DHT22;47267;48.130;-2.040;2024-02-15T00:56:51;20.50;57.50
61398;DHT22;47267;48.130;-2.040;2024-02-15T00:59:17;20.50;57.50
61398;DHT22;47267;48.130;-2.040;2024-02-15T01:01:43;20.50;57.60
61398;DHT22;47267;48.130;-2.040;2024-02-15T01:04:10;20.50;57.50
61398;DHT22;47267;48.130;-2.040;2024-02-15T01:06:36;20.50;57.50
61398;DHT22;47267;48.130;-2.040;2024-02-15T01:09:02;20.50;57.50
61398;DHT22;47267;48.130;-2.040;2024-02-15T01:11:29;20.50;57.50
61398;DHT22;47267;48.130;-2.040;2024-02-15T01:13:57;20.60;57.50
61398;DHT22;47267;48.130;-2.040;2024-02-15T01:16:24;20.60;57.50
61398;DHT22;47267;48.130;-2.040;2024-02-15T01:18:50;20.60;57.50
61398;DHT22;47267;48.130;-2.040;2024-02-15T01:21:15;20.60;57.50
61398;DHT22;47267;48.130;-2.040;2024-02-15T01:23:42;20.60;57.50
61398;DHT22;47267;48.130;-2.040;2024-02-15T01:26:08;20.60;57.40
61398;DHT22;47267;48.130;-2.040;2024-02-15T01:28:34;20.60;57.40
61398;DHT22;47267;48.130;-2.040;2024-02-15T01:30:59;20.60;57.40
61398;DHT22;47267;48.130;-2.040;2024-02-15T01:33:25;20.60;57.30
61398;DHT22;47267;48.130;-2.040;2024-02-15T01:35:52;20.60;57.30
61398;DHT22;47267;48.130;-2.040;2024-02-15T01:38:17;20.60;57.30
61398;DHT22;47267;48.130;-2.040;2024-02-15T01:40:43;20.60;57.30
61398;DHT22;47267;48.130;-2.040;2024-02-15T01:43:09;20.60;57.20
61398;DHT22;47267;48.130;-2.040;2024-02-15T01:45:35;20.60;57.20
61398;DHT22;47267;48.130;-2.040;2024-02-15T01:48:02;20.60;57.20
61398;DHT22;47267;48.130;-2.040;2024-02-15T01:50:29;20.60;57.20
61398;DHT22;47267;48.130;-2.040;2024-02-15T01:52:57;20.60;57.10
61398;DHT22;47267;48.130;-2.040;2024-02-15T01:55:24;20.60;57.10
61398;DHT22;47267;48.130;-2.040;2024-02-15T01:57:50;20.60;57.10
61398;DHT22;47267;48.130;-2.040;2024-02-15T02:00:18;20.60;57.00
61398;DHT22;47267;48.130;-2.040;2024-02-15T02:02:44;20.60;57.00
61398;DHT22;47267;48.130;-2.040;2024-02-15T02:05:10;20.60;57.00
61398;DHT22;47267;48.130;-2.040;2024-02-15T02:07:37;20.60;56.90
61398;DHT22;47267;48.130;-2.040;2024-02-15T02:10:04;20.60;56.90
61398;DHT22;47267;48.130;-2.040;2024-02-15T02:12:30;20.60;56.90
61398;DHT22;47267;48.130;-2.040;2024-02-15T02:14:56;20.60;57.50
61398;DHT22;47267;48.130;-2.040;2024-02-15T02:17:22;20.60;56.80
61398;DHT22;47267;48.130;-2.040;2024-02-15T02:19:48;20.60;56.80
61398;DHT22;47267;48.130;-2.040;2024-02-15T02:22:19;20.60;56.80
61398;DHT22;47267;48.130;-2.040;2024-02-15T02:25:06;20.70;56.80
61398;DHT22;47267;48.130;-2.040;2024-02-15T02:27:34;20.60;56.80
61398;DHT22;47267;48.130;-2.040;2024-02-15T02:30:00;20.60;56.70
61398;DHT22;47267;48.130;-2.040;2024-02-15T02:32:26;20.60;56.80
61398;DHT22;47267;48.130;-2.040;2024-02-15T02:34:52;20.60;56.70
61398;DHT22;47267;48.130;-2.040;2024-02-15T02:37:25;20.60;56.60
61398;DHT22;47267;48.130;-2.040;2024-02-15T02:39:51;20.70;56.70
61398;DHT22;47267;48.130;-2.040;2024-02-15T02:42:17;20.70;56.60
61398;DHT22;47267;48.130;-2.040;2024-02-15T02:44:43;20.60;56.60
61398;DHT22;47267;48.130;-2.040;2024-02-15T02:47:08;20.70;56.70
61398;DHT22;47267;48.130;-2.040;2024-02-15T02:49:37;20.70;56.60
61398;DHT22;47267;48.130;-2.040;2024-02-15T02:52:03;20.70;56.60
61398;DHT22;47267;48.130;-2.040;2024-02-15T02:54:29;20.70;56.50
61398;DHT22;47267;48.130;-2.040;2024-02-15T02:56:55;20.70;56.50
61398;DHT22;47267;48.130;-2.040;2024-02-15T02:59:21;20.70;56.40
61398;DHT22;47267;48.130;-2.040;2024-02-15T03:01:47;20.70;56.40
61398;DHT22;47267;48.130;-2.040;2024-02-15T03:04:15;20.70;56.30
61398;DHT22;47267;48.130;-2.040;2024-02-15T03:06:43;20.70;56.40
61398;DHT22;47267;48.130;-2.040;2024-02-15T03:09:09;20.70;56.30
61398;DHT22;47267;48.130;-2.040;2024-02-15T03:11:36;20.70;56.40
61398;DHT22;47267;48.130;-2.040;2024-02-15T03:14:02;20.70;56.40
61398;DHT22;47267;48.130;-2.040;2024-02-15T03:16:31;20.70;56.30
61398;DHT22;47267;48.130;-2.040;2024-02-15T03:18:56;20.70;56.30
61398;DHT22;47267;48.130;-2.040;2024-02-15T03:21:22;20.70;56.30
61398;DHT22;47267;48.130;-2.040;2024-02-15T03:23:48;20.70;56.30
61398;DHT22;47267;48.130;-2.040;2024-02-15T03:26:14;20.70;56.30
61398;DHT22;47267;48.130;-2.040;2024-02-15T03:28:39;20.60;56.80
61398;DHT22;47267;48.130;-2.040;2024-02-15T03:31:05;20.70;56.90
61398;DHT22;47267;48.130;-2.040;2024-02-15T03:33:31;20.70;56.30
61398;DHT22;47267;48.130;-2.040;2024-02-15T03:36:00;20.60;56.20
61398;DHT22;47267;48.130;-2.040;2024-02-15T03:38:27;20.70;56.30
61398;DHT22;47267;48.130;-2.040;2024-02-15T03:40:57;20.70;56.20
61398;DHT22;47267;48.130;-2.040;2024-02-15T03:43:23;20.70;56.30
61398;DHT22;47267;48.130;-2.040;2024-02-15T03:45:49;20.70;56.20
61398;DHT22;47267;48.130;-2.040;2024-02-15T03:48:16;20.70;56.20
61398;DHT22;47267;48.130;-2.040;2024-02-15T03:50:42;20.70;56.20
61398;DHT22;47267;48.130;-2.040;2024-02-15T03:53:09;20.70;56.20
61398;DHT22;47267;48.130;-2.040;2024-02-15T03:55:36;20.60;56.10
61398;DHT22;47267;48.130;-2.040;2024-02-15T03:58:02;20.60;56.10
61398;DHT22;47267;48.130;-2.040;2024-02-15T04:00:28;20.60;56.10
61398;DHT22;47267;48.130;-2.040;2024-02-15T04:02:53;20.60;56.70
61398;DHT22;47267;48.130;-2.040;2024-02-15T04:05:20;20.70;56.10
61398;DHT22;47267;48.130;-2.040;2024-02-15T04:07:47;20.60;56.10
61398;DHT22;47267;48.130;-2.040;2024-02-15T04:10:13;20.70;56.10
61398;DHT22;47267;48.130;-2.040;2024-02-15T04:12:39;20.70;56.10
61398;DHT22;47267;48.130;-2.040;2024-02-15T04:15:07;20.60;56.00
61398;DHT22;47267;48.130;-2.040;2024-02-15T04:17:37;20.60;56.00
61398;DHT22;47267;48.130;-2.040;2024-02-15T04:20:04;20.60;56.00
61398;DHT22;47267;48.130;-2.040;2024-02-15T04:22:32;20.70;56.00
61398;DHT22;47267;48.130;-2.040;2024-02-15T04:25:05;20.60;56.00
61398;DHT22;47267;48.130;-2.040;2024-02-15T04:27:35;20.60;56.00
61398;DHT22;47267;48.130;-2.040;2024-02-15T04:30:02;20.60;55.90
61398;DHT22;47267;48.130;-2.040;2024-02-15T04:32:28;20.60;55.90
61398;DHT22;47267;48.130;-2.040;2024-02-15T04:34:55;20.60;55.90
61398;DHT22;47267;48.130;-2.040;2024-02-15T04:37:20;20.60;55.90
61398;DHT22;47267;48.130;-2.040;2024-02-15T04:39:46;20.60;55.90
61398;DHT22;47267;48.130;-2.040;2024-02-15T04:42:13;20.60;55.90
61398;DHT22;47267;48.130;-2.040;2024-02-15T04:44:39;20.60;55.90
61398;DHT22;47267;48.130;-2.040;2024-02-15T04:47:05;20.60;55.90
61398;DHT22;47267;48.130;-2.040;2024-02-15T04:49:32;20.60;55.90
61398;DHT22;47267;48.130;-2.040;2024-02-15T04:51:58;20.60;55.90
61398;DHT22;47267;48.130;-2.040;2024-02-15T04:54:24;20.60;55.90
61398;DHT22;47267;48.130;-2.040;2024-02-15T04:56:49;20.60;55.90
61398;DHT22;47267;48.130;-2.040;2024-02-15T04:59:20;20.60;55.90
61398;DHT22;47267;48.130;-2.040;2024-02-15T05:01:49;20.60;55.80
61398;DHT22;47267;48.130;-2.040;2024-02-15T05:04:16;20.60;55.90
61398;DHT22;47267;48.130;-2.040;2024-02-15T05:06:41;20.60;55.90
61398;DHT22;47267;48.130;-2.040;2024-02-15T05:09:07;20.60;55.80
61398;DHT22;47267;48.130;-2.040;2024-02-15T05:11:41;20.60;55.80
61398;DHT22;47267;48.130;-2.040;2024-02-15T05:14:11;20.60;55.90
61398;DHT22;47267;48.130;-2.040;2024-02-15T05:16:37;20.60;55.80
61398;DHT22;47267;48.130;-2.040;2024-02-15T05:19:08;20.60;55.80
61398;DHT22;47267;48.130;-2.040;2024-02-15T05:21:37;20.60;55.80
61398;DHT22;47267;48.130;-2.040;2024-02-15T05:24:04;20.60;55.80
61398;DHT22;47267;48.130;-2.040;2024-02-15T05:26:29;20.60;55.80
61398;DHT22;47267;48.130;-2.040;2024-02-15T05:28:55;20.60;55.80
61398;DHT22;47267;48.130;-2.040;2024-02-15T05:31:21;20.60;55.70
61398;DHT22;47267;48.130;-2.040;2024-02-15T05:33:54;20.60;55.70
61398;DHT22;47267;48.130;-2.040;2024-02-15T05:36:21;20.60;55.70
61398;DHT22;47267;48.130;-2.040;2024-02-15T05:38:51;20.60;55.70
61398;DHT22;47267;48.130;-2.040;2024-02-15T05:41:17;20.60;55.70
61398;DHT22;47267;48.130;-2.040;2024-02-15T05:43:42;20.60;55.70
61398;DHT22;47267;48.130;-2.040;2024-02-15T05:46:09;20.60;55.70
61398;DHT22;47267;48.130;-2.040;2024-02-15T05:48:37;20.50;55.70
61398;DHT22;47267;48.130;-2.040;2024-02-15T05:51:05;20.60;55.70
61398;DHT22;47267;48.130;-2.040;2024-02-15T05:53:31;20.50;55.60
61398;DHT22;47267;48.130;-2.040;2024-02-15T05:56:10;20.60;55.70
61398;DHT22;47267;48.130;-2.040;2024-02-15T05:58:37;20.60;56.30
61398;DHT22;47267;48.130;-2.040;2024-02-15T06:01:03;20.60;55.60
61398;DHT22;47267;48.130;-2.040;2024-02-15T06:03:35;20.50;55.60
61398;DHT22;47267;48.130;-2.040;2024-02-15T06:06:04;20.60;55.70
61398;DHT22;47267;48.130;-2.040;2024-02-15T06:08:33;20.50;55.60
61398;DHT22;47267;48.130;-2.040;2024-02-15T06:10:59;20.60;55.60
61398;DHT22;47267;48.130;-2.040;2024-02-15T06:13:25;20.60;55.70
61398;DHT22;47267;48.130;-2.040;2024-02-15T06:15:52;20.50;55.60
61398;DHT22;47267;48.130;-2.040;2024-02-15T06:18:21;20.60;55.70
61398;DHT22;47267;48.130;-2.040;2024-02-15T06:20:49;20.60;55.70
61398;DHT22;47267;48.130;-2.040;2024-02-15T06:23:16;20.60;55.70
61398;DHT22;47267;48.130;-2.040;2024-02-15T06:25:43;20.60;55.70
61398;DHT22;47267;48.130;-2.040;2024-02-15T06:28:09;20.60;55.70
61398;DHT22;47267;48.130;-2.040;2024-02-15T06:30:53;20.50;55.70
61398;DHT22;47267;48.130;-2.040;2024-02-15T06:33:37;20.60;55.80
61398;DHT22;47267;48.130;-2.040;2024-02-15T06:36:22;20.50;55.70
61398;DHT22;47267;48.130;-2.040;2024-02-15T06:39:06;20.60;55.80
61398;DHT22;47267;48.130;-2.040;2024-02-15T06:41:50;20.60;55.90
61398;DHT22;47267;48.130;-2.040;2024-02-15T06:44:16;20.50;55.90
61398;DHT22;47267;48.130;-2.040;2024-02-15T06:46:42;20.50;56.00
61398;DHT22;47267;48.130;-2.040;2024-02-15T06:49:08;20.50;56.10
61398;DHT22;47267;48.130;-2.040;2024-02-15T06:51:34;20.50;56.00
61398;DHT22;47267;48.130;-2.040;2024-02-15T06:54:00;20.50;56.00
61398;DHT22;47267;48.130;-2.040;2024-02-15T06:56:25;20.50;56.10
61398;DHT22;47267;48.130;-2.040;2024-02-15T06:58:51;20.50;56.00
61398;DHT22;47267;48.130;-2.040;2024-02-15T07:01:18;20.50;56.10
61398;DHT22;47267;48.130;-2.040;2024-02-15T07:03:44;20.50;56.20
61398;DHT22;47267;48.130;-2.040;2024-02-15T07:06:11;20.50;56.30
61398;DHT22;47267;48.130;-2.040;2024-02-15T07:08:39;20.50;56.30
61398;DHT22;47267;48.130;-2.040;2024-02-15T07:11:07;20.50;56.30
61398;DHT22;47267;48.130;-2.040;2024-02-15T07:13:35;20.50;56.40
61398;DHT22;47267;48.130;-2.040;2024-02-15T07:16:06;20.50;56.40
61398;DHT22;47267;48.130;-2.040;2024-02-15T07:18:33;20.50;56.50
61398;DHT22;47267;48.130;-2.040;2024-02-15T07:20:58;20.50;56.50
61398;DHT22;47267;48.130;-2.040;2024-02-15T07:23:26;20.50;56.60
61398;DHT22;47267;48.130;-2.040;2024-02-15T07:25:52;20.50;56.60
61398;DHT22;47267;48.130;-2.040;2024-02-15T07:28:20;20.50;56.70
61398;DHT22;47267;48.130;-2.040;2024-02-15T07:30:46;20.50;56.70
61398;DHT22;47267;48.130;-2.040;2024-02-15T07:33:14;20.50;56.70
61398;DHT22;47267;48.130;-2.040;2024-02-15T07:35:44;20.50;56.80
61398;DHT22;47267;48.130;-2.040;2024-02-15T07:38:09;20.60;56.70
61398;DHT22;47267;48.130;-2.040;2024-02-15T07:40:35;20.50;56.60
61398;DHT22;47267;48.130;-2.040;2024-02-15T07:43:01;20.60;56.60
61398;DHT22;47267;48.130;-2.040;2024-02-15T07:45:28;20.60;56.60
61398;DHT22;47267;48.130;-2.040;2024-02-15T07:47:55;20.60;56.50
61398;DHT22;47267;48.130;-2.040;2024-02-15T07:50:20;20.60;56.60
61398;DHT22;47267;48.130;-2.040;2024-02-15T07:52:49;20.60;56.50
61398;DHT22;47267;48.130;-2.040;2024-02-15T07:55:15;20.60;56.60
61398;DHT22;47267;48.130;-2.040;2024-02-15T07:57:41;20.60;56.60
61398;DHT22;47267;48.130;-2.040;2024-02-15T08:00:07;20.60;56.60
61398;DHT22;47267;48.130;-2.040;2024-02-15T08:02:38;20.60;56.60
61398;DHT22;47267;48.130;-2.040;2024-02-15T08:05:07;20.60;56.60
61398;DHT22;47267;48.130;-2.040;2024-02-15T08:07:43;20.60;56.60
61398;DHT22;47267;48.130;-2.040;2024-02-15T08:10:10;20.60;56.60
61398;DHT22;47267;48.130;-2.040;2024-02-15T08:12:45;20.60;56.50
61398;DHT22;47267;48.130;-2.040;2024-02-15T08:15:11;20.60;56.50
61398;DHT22;47267;48.130;-2.040;2024-02-15T08:17:40;20.60;56.50
61398;DHT22;47267;48.130;-2.040;2024-02-15T08:20:13;20.60;56.50
61398;DHT22;47267;48.130;-2.040;2024-02-15T08:22:40;20.60;56.50
61398;DHT22;47267;48.130;-2.040;2024-02-15T08:25:10;20.60;56.50
61398;DHT22;47267;48.130;-2.040;2024-02-15T08:27:40;20.60;56.50
61398;DHT22;47267;48.130;-2.040;2024-02-15T08:30:13;20.60;56.50
61398;DHT22;47267;48.130;-2.040;2024-02-15T08:32:43;20.60;56.50
61398;DHT22;47267;48.130;-2.040;2024-02-15T08:35:10;20.60;56.50
61398;DHT22;47267;48.130;-2.040;2024-02-15T08:37:36;20.70;56.50
61398;DHT22;47267;48.130;-2.040;2024-02-15T08:40:08;20.60;56.40
61398;DHT22;47267;48.130;-2.040;2024-02-15T08:42:41;20.70;56.40
61398;DHT22;47267;48.130;-2.040;2024-02-15T08:45:07;20.60;56.30
61398;DHT22;47267;48.130;-2.040;2024-02-15T08:47:39;20.70;56.40
61398;DHT22;47267;48.130;-2.040;2024-02-15T08:50:06;20.70;56.30
61398;DHT22;47267;48.130;-2.040;2024-02-15T08:52:34;20.70;56.30
61398;DHT22;47267;48.130;-2.040;2024-02-15T08:55:00;20.70;56.30
61398;DHT22;47267;48.130;-2.040;2024-02-15T08:57:26;20.70;56.30
61398;DHT22;47267;48.130;-2.040;2024-02-15T08:59:52;20.70;56.30
61398;DHT22;47267;48.130;-2.040;2024-02-15T09:02:18;20.70;56.30
61398;DHT22;47267;48.130;-2.040;2024-02-15T09:04:44;20.70;56.20
61398;DHT22;47267;48.130;-2.040;2024-02-15T09:07:10;20.70;56.20
61398;DHT22;47267;48.130;-2.040;2024-02-15T09:09:36;20.70;56.20
61398;DHT22;47267;48.130;-2.040;2024-02-15T09:12:04;20.70;56.10
61398;DHT22;47267;48.130;-2.040;2024-02-15T09:14:33;20.70;56.10
61398;DHT22;47267;48.130;-2.040;2024-02-15T09:17:00;20.70;56.10
61398;DHT22;47267;48.130;-2.040;2024-02-15T09:19:25;20.70;56.10
61398;DHT22;47267;48.130;-2.040;2024-02-15T09:21:51;20.70;56.10
61398;DHT22;47267;48.130;-2.040;2024-02-15T09:24:17;20.70;56.60
61398;DHT22;47267;48.130;-2.040;2024-02-15T09:26:43;20.70;56.00
61398;DHT22;47267;48.130;-2.040;2024-02-15T09:29:10;20.80;56.00
61398;DHT22;47267;48.130;-2.040;2024-02-15T09:31:35;20.80;56.00
61398;DHT22;47267;48.130;-2.040;2024-02-15T09:34:02;20.80;56.00
61398;DHT22;47267;48.130;-2.040;2024-02-15T09:36:35;20.80;55.90
61398;DHT22;47267;48.130;-2.040;2024-02-15T09:39:03;20.80;55.70
61398;DHT22;47267;48.130;-2.040;2024-02-15T09:41:29;20.80;55.70
61398;DHT22;47267;48.130;-2.040;2024-02-15T09:43:55;20.90;55.80
61398;DHT22;47267;48.130;-2.040;2024-02-15T09:46:22;20.90;55.80
61398;DHT22;47267;48.130;-2.040;2024-02-15T09:48:50;20.90;55.60
61398;DHT22;47267;48.130;-2.040;2024-02-15T09:51:20;20.90;55.70
61398;DHT22;47267;48.130;-2.040;2024-02-15T09:53:47;20.90;55.70
61398;DHT22;47267;48.130;-2.040;2024-02-15T09:56:14;20.90;55.70
61398;DHT22;47267;48.130;-2.040;2024-02-15T09:58:41;20.90;55.60
61398;DHT22;47267;48.130;-2.040;2024-02-15T10:01:09;20.90;55.60
61398;DHT22;47267;48.130;-2.040;2024-02-15T10:03:39;20.90;55.60
61398;DHT22;47267;48.130;-2.040;2024-02-15T10:06:06;20.90;55.50
61398;DHT22;47267;48.130;-2.040;2024-02-15T10:08:31;21.00;55.50
61398;DHT22;47267;48.130;-2.040;2024-02-15T10:11:10;21.00;55.50
61398;DHT22;47267;48.130;-2.040;2024-02-15T10:13:36;21.10;55.40
61398;DHT22;47267;48.130;-2.040;2024-02-15T10:16:18;21.10;55.30
61398;DHT22;47267;48.130;-2.040;2024-02-15T10:18:46;21.00;55.20
61398;DHT22;47267;48.130;-2.040;2024-02-15T10:21:28;21.10;55.30
61398;DHT22;47267;48.130;-2.040;2024-02-15T10:24:08;21.10;55.20
61398;DHT22;47267;48.130;-2.040;2024-02-15T10:26:35;21.00;55.20
61398;DHT22;47267;48.130;-2.040;2024-02-15T10:29:06;21.00;55.20
61398;DHT22;47267;48.130;-2.040;2024-02-15T10:31:35;21.00;55.20
61398;DHT22;47267;48.130;-2.040;2024-02-15T10:34:05;21.00;55.30
61398;DHT22;47267;48.130;-2.040;2024-02-15T10:36:31;21.00;55.30
61398;DHT22;47267;48.130;-2.040;2024-02-15T10:41:54;21.00;55.40
61398;DHT22;47267;48.130;-2.040;2024-02-15T10:44:21;21.00;55.40
61398;DHT22;47267;48.130;-2.040;2024-02-15T10:46:48;20.90;55.40
61398;DHT22;47267;48.130;-2.040;2024-02-15T10:49:18;20.90;55.40
61398;DHT22;47267;48.130;-2.040;2024-02-15T10:52:06;20.90;55.40
61398;DHT22;47267;48.130;-2.040;2024-02-15T10:57:05;20.90;55.50
61398;DHT22;47267;48.130;-2.040;2024-02-15T10:59:38;20.90;55.50
61398;DHT22;47267;48.130;-2.040;2024-02-15T11:02:38;20.90;55.60
61398;DHT22;47267;48.130;-2.040;2024-02-15T11:05:09;20.90;55.60
61398;DHT22;47267;48.130;-2.040;2024-02-15T11:07:36;20.90;55.60
61398;DHT22;47267;48.130;-2.040;2024-02-15T11:10:08;20.90;55.60
61398;DHT22;47267;48.130;-2.040;2024-02-15T11:12:36;20.90;55.60
61398;DHT22;47267;48.130;-2.040;2024-02-15T11:15:02;20.90;55.70
61398;DHT22;47267;48.130;-2.040;2024-02-15T11:23:03;20.90;55.70
61398;DHT22;47267;48.130;-2.040;2024-02-15T11:25:36;20.90;55.80
61398;DHT22;47267;48.130;-2.040;2024-02-15T11:30:49;20.80;55.80
61398;DHT22;47267;48.130;-2.040;2024-02-15T11:33:31;20.80;55.80
61398;DHT22;47267;48.130;-2.040;2024-02-15T11:36:11;20.80;55.80
61398;DHT22;47267;48.130;-2.040;2024-02-15T11:38:40;20.80;55.80
61398;DHT22;47267;48.130;-2.040;2024-02-15T11:41:10;20.80;55.90
61398;DHT22;47267;48.130;-2.040;2024-02-15T11:46:18;20.80;55.90
61398;DHT22;47267;48.130;-2.040;2024-02-15T11:48:46;20.80;56.00
61398;DHT22;47267;48.130;-2.040;2024-02-15T11:51:33;20.70;55.90
61398;DHT22;47267;48.130;-2.040;2024-02-15T11:56:34;20.70;56.00
61398;DHT22;47267;48.130;-2.040;2024-02-15T11:59:16;20.70;56.00
61398;DHT22;47267;48.130;-2.040;2024-02-15T12:01:57;20.70;56.00
61398;DHT22;47267;48.130;-2.040;2024-02-15T12:04:42;20.70;56.00
61398;DHT22;47267;48.130;-2.040;2024-02-15T12:07:28;20.70;56.00
61398;DHT22;47267;48.130;-2.040;2024-02-15T12:10:19;20.70;56.00
61398;DHT22;47267;48.130;-2.040;2024-02-15T12:13:03;20.70;56.00
61398;DHT22;47267;48.130;-2.040;2024-02-15T12:16:00;20.70;56.00
61398;DHT22;47267;48.130;-2.040;2024-02-15T12:18:44;20.70;56.10
61398;DHT22;47267;48.130;-2.040;2024-02-15T12:21:16;20.70;56.10
61398;DHT22;47267;48.130;-2.040;2024-02-15T12:23:43;20.70;56.10
61398;DHT22;47267;48.130;-2.040;2024-02-15T12:26:11;20.70;56.10
61398;DHT22;47267;48.130;-2.040;2024-02-15T12:28:40;20.70;56.10
61398;DHT22;47267;48.130;-2.040;2024-02-15T12:31:09;20.70;56.20
61398;DHT22;47267;48.130;-2.040;2024-02-15T12:33:35;20.70;56.10
61398;DHT22;47267;48.130;-2.040;2024-02-15T12:36:05;20.70;56.20
61398;DHT22;47267;48.130;-2.040;2024-02-15T12:38:31;20.70;56.20
61398;DHT22;47267;48.130;-2.040;2024-02-15T12:40:57;20.70;56.20
61398;DHT22;47267;48.130;-2.040;2024-02-15T12:43:22;20.70;56.20
61398;DHT22;47267;48.130;-2.040;2024-02-15T12:45:48;20.60;56.20
61398;DHT22;47267;48.130;-2.040;2024-02-15T12:48:14;20.60;56.20
61398;DHT22;47267;48.130;-2.040;2024-02-15T12:50:44;20.60;56.20
61398;DHT22;47267;48.130;-2.040;2024-02-15T12:53:10;20.60;56.20
61398;DHT22;47267;48.130;-2.040;2024-02-15T12:55:36;20.60;56.20
61398;DHT22;47267;48.130;-2.040;2024-02-15T12:58:04;20.60;56.20
61398;DHT22;47267;48.130;-2.040;2024-02-15T13:00:34;20.60;56.20
61398;DHT22;47267;48.130;-2.040;2024-02-15T13:03:04;20.60;56.20
61398;DHT22;47267;48.130;-2.040;2024-02-15T13:05:31;20.60;56.30
61398;DHT22;47267;48.130;-2.040;2024-02-15T13:07:57;20.60;56.30
61398;DHT22;47267;48.130;-2.040;2024-02-15T13:10:35;20.60;56.30
61398;DHT22;47267;48.130;-2.040;2024-02-15T13:13:01;20.50;56.20
61398;DHT22;47267;48.130;-2.040;2024-02-15T13:15:27;20.60;56.30
61398;DHT22;47267;48.130;-2.040;2024-02-15T13:17:58;20.60;56.30
61398;DHT22;47267;48.130;-2.040;2024-02-15T13:20:24;20.60;56.30
61398;DHT22;47267;48.130;-2.040;2024-02-15T13:23:02;20.60;56.30
61398;DHT22;47267;48.130;-2.040;2024-02-15T13:25:34;20.50;56.30
61398;DHT22;47267;48.130;-2.040;2024-02-15T13:28:02;20.50;56.30
61398;DHT22;47267;48.130;-2.040;2024-02-15T13:30:29;20.50;56.40
61398;DHT22;47267;48.130;-2.040;2024-02-15T13:32:56;20.50;57.00
61398;DHT22;47267;48.130;-2.040;2024-02-15T13:35:22;20.50;56.40
61398;DHT22;47267;48.130;-2.040;2024-02-15T13:37:54;20.50;57.00
61398;DHT22;47267;48.130;-2.040;2024-02-15T13:40:23;20.50;56.40
61398;DHT22;47267;48.130;-2.040;2024-02-15T13:42:51;20.50;56.40
61398;DHT22;47267;48.130;-2.040;2024-02-15T13:45:21;20.50;56.40
61398;DHT22;47267;48.130;-2.040;2024-02-15T13:47:53;20.50;56.50
61398;DHT22;47267;48.130;-2.040;2024-02-15T13:50:19;20.50;56.50
61398;DHT22;47267;48.130;-2.040;2024-02-15T13:52:45;20.50;56.50
61398;DHT22;47267;48.130;-2.040;2024-02-15T13:55:15;20.50;56.50
61398;DHT22;47267;48.130;-2.040;2024-02-15T13:57:42;20.50;56.50
61398;DHT22;47267;48.130;-2.040;2024-02-15T14:00:13;20.50;56.50
61398;DHT22;47267;48.130;-2.040;2024-02-15T14:02:42;20.50;56.50
61398;DHT22;47267;48.130;-2.040;2024-02-15T14:05:09;20.50;56.60
61398;DHT22;47267;48.130;-2.040;2024-02-15T14:07:37;20.40;56.50
61398;DHT22;47267;48.130;-2.040;2024-02-15T14:10:05;20.40;56.60
61398;DHT22;47267;48.130;-2.040;2024-02-15T14:12:31;20.40;56.50
61398;DHT22;47267;48.130;-2.040;2024-02-15T14:14:57;20.40;56.60
61398;DHT22;47267;48.130;-2.040;2024-02-15T14:17:23;20.40;56.60
61398;DHT22;47267;48.130;-2.040;2024-02-15T14:19:49;20.40;57.20
61398;DHT22;47267;48.130;-2.040;2024-02-15T14:22:15;20.40;56.60
61398;DHT22;47267;48.130;-2.040;2024-02-15T14:24:43;20.40;56.60
61398;DHT22;47267;48.130;-2.040;2024-02-15T14:27:10;20.40;56.70
61398;DHT22;47267;48.130;-2.040;2024-02-15T14:29:37;20.40;56.70
61398;DHT22;47267;48.130;-2.040;2024-02-15T14:32:11;20.40;56.70
61398;DHT22;47267;48.130;-2.040;2024-02-15T14:35:13;20.40;56.70
61398;DHT22;47267;48.130;-2.040;2024-02-15T14:37:39;20.40;56.70
61398;DHT22;47267;48.130;-2.040;2024-02-15T14:40:06;20.40;56.70
61398;DHT22;47267;48.130;-2.040;2024-02-15T14:42:32;20.40;56.80
61398;DHT22;47267;48.130;-2.040;2024-02-15T14:44:59;20.40;56.80
61398;DHT22;47267;48.130;-2.040;2024-02-15T14:47:25;20.40;56.80
61398;DHT22;47267;48.130;-2.040;2024-02-15T14:49:51;20.40;56.80
61398;DHT22;47267;48.130;-2.040;2024-02-15T14:52:17;20.40;56.80
61398;DHT22;47267;48.130;-2.040;2024-02-15T14:54:43;20.40;56.80
61398;DHT22;47267;48.130;-2.040;2024-02-15T14:57:09;20.40;56.90
61398;DHT22;47267;48.130;-2.040;2024-02-15T14:59:34;20.40;56.90
61398;DHT22;47267;48.130;-2.040;2024-02-15T15:02:01;20.40;56.90
61398;DHT22;47267;48.130;-2.040;2024-02-15T15:04:34;20.40;57.00
61398;DHT22;47267;48.130;-2.040;2024-02-15T15:07:13;20.40;57.00
61398;DHT22;47267;48.130;-2.040;2024-02-15T15:09:57;20.40;57.00
61398;DHT22;47267;48.130;-2.040;2024-02-15T15:12:41;20.40;56.90
61398;DHT22;47267;48.130;-2.040;2024-02-15T15:15:11;20.40;57.00
61398;DHT22;47267;48.130;-2.040;2024-02-15T15:17:40;20.40;57.00
61398;DHT22;47267;48.130;-2.040;2024-02-15T15:20:06;20.40;57.00
61398;DHT22;47267;48.130;-2.040;2024-02-15T15:22:34;20.40;57.10
61398;DHT22;47267;48.130;-2.040;2024-02-15T15:25:02;20.30;57.00
61398;DHT22;47267;48.130;-2.040;2024-02-15T15:27:29;20.30;57.10
61398;DHT22;47267;48.130;-2.040;2024-02-15T15:29:55;20.30;57.00
61398;DHT22;47267;48.130;-2.040;2024-02-15T15:32:22;20.30;57.10
61398;DHT22;47267;48.130;-2.040;2024-02-15T15:34:48;20.30;57.10
61398;DHT22;47267;48.130;-2.040;2024-02-15T15:37:14;20.30;57.10
61398;DHT22;47267;48.130;-2.040;2024-02-15T15:39:41;20.30;57.10
61398;DHT22;47267;48.130;-2.040;2024-02-15T15:42:07;20.30;57.10